createdAt,value
2019-03-05T00:00:28.088Z,82.20
2019-03-05T00:01:28.076Z,82.61
2019-03-05T00:02:28.065Z,81.58
2019-03-05T00:03:28.055Z,81.37
2019-03-05T00:04:28.069Z,81.07
2019-03-05T00:05:28.032Z,81.07
2019-03-05T00:06:28.024Z,82.26
2019-03-05T00:07:28.008Z,82.51
2019-03-05T00:08:27.994Z,82.20
2019-03-05T00:09:28.006Z,81.07
2019-03-05T00:10:27.972Z,80.20
2019-03-05T00:11:27.972Z,80.96
2019-03-05T00:12:27.949Z,80.82
2019-03-05T00:13:27.958Z,80.30
2019-03-05T00:14:27.944Z,80.14
2019-03-05T00:15:27.928Z,78.86
2019-03-05T00:16:27.904Z,80.65
2019-03-05T00:17:27.898Z,80.04
2019-03-05T00:18:27.900Z,80.76
2019-03-05T00:19:27.900Z,79.72
2019-03-05T00:20:27.858Z,79.72
2019-03-05T00:21:27.851Z,79.83
2019-03-05T00:22:27.839Z,79.72
2019-03-05T00:23:27.824Z,80.96
2019-03-05T00:24:27.837Z,80.04
2019-03-05T00:25:27.798Z,79.21
2019-03-05T00:26:27.787Z,79.41
2019-03-05T00:27:27.780Z,79.48
2019-03-05T00:28:27.765Z,79.00
2019-03-05T00:29:27.802Z,80.96
2019-03-05T00:30:27.761Z,80.30
2019-03-05T00:31:27.738Z,80.55
2019-03-05T00:32:27.719Z,79.17
2019-03-05T00:33:27.708Z,80.14
2019-03-05T00:34:27.695Z,80.24
2019-03-05T00:35:27.704Z,79.11
2019-03-05T00:36:27.688Z,79.27
2019-03-05T00:37:27.662Z,78.97
2019-03-05T00:38:27.650Z,79.27
2019-03-05T00:39:27.640Z,80.04
2019-03-05T00:40:27.645Z,80.04
2019-03-05T00:41:27.617Z,79.21
2019-03-05T00:42:27.605Z,79.00
2019-03-05T00:43:27.593Z,79.52
2019-03-05T00:44:27.588Z,78.76
2019-03-05T00:45:27.592Z,79.72
2019-03-05T00:46:27.557Z,79.41
2019-03-05T00:47:27.556Z,78.28
2019-03-05T00:48:27.537Z,79.17
2019-03-05T00:49:27.528Z,79.07
2019-03-05T00:50:27.532Z,79.07
2019-03-05T00:51:27.512Z,78.80
2019-03-05T00:52:27.490Z,79.48
2019-03-05T00:53:27.482Z,78.97
2019-03-05T00:54:27.469Z,79.62
2019-03-05T00:55:27.480Z,79.48
2019-03-05T00:56:27.444Z,79.52
2019-03-05T00:57:27.436Z,79.69
2019-03-05T00:58:27.437Z,79.31
2019-03-05T00:59:27.408Z,79.52
2019-03-05T01:00:27.399Z,79.72
2019-03-05T01:01:27.407Z,79.58
2019-03-05T01:02:27.377Z,79.31
2019-03-05T01:03:27.368Z,78.76
2019-03-05T01:04:27.351Z,78.69
2019-03-05T01:05:27.343Z,78.59
2019-03-05T01:06:27.351Z,78.45
2019-03-05T01:07:27.318Z,78.49
2019-03-05T01:08:27.307Z,79.52
2019-03-05T01:09:27.299Z,78.66
2019-03-05T01:10:27.288Z,78.38
2019-03-05T01:11:27.294Z,78.90
2019-03-05T01:12:27.283Z,78.86
2019-03-05T01:13:27.250Z,78.38
2019-03-05T01:14:27.241Z,79.52
2019-03-05T01:15:27.230Z,78.80
2019-03-05T01:16:27.218Z,78.38
2019-03-05T01:17:27.224Z,78.59
2019-03-05T01:18:27.196Z,79.83
2019-03-05T01:19:27.186Z,78.80
2019-03-05T01:20:27.176Z,79.52
2019-03-05T01:21:27.164Z,78.90
2019-03-05T01:22:27.173Z,78.69
2019-03-05T01:23:27.202Z,78.38
2019-03-05T01:24:27.127Z,78.38
2019-03-05T01:25:27.116Z,79.31
2019-03-05T01:26:27.105Z,78.59
2019-03-05T01:27:27.113Z,78.49
2019-03-05T01:28:27.084Z,78.49
2019-03-05T01:29:27.074Z,79.21
2019-03-05T01:30:27.062Z,79.21
2019-03-05T01:31:27.047Z,79.62
2019-03-05T01:32:27.055Z,79.04
2019-03-05T01:33:27.027Z,79.11
2019-03-05T01:34:27.016Z,78.80
2019-03-05T01:35:27.003Z,79.04
2019-03-05T01:36:27.058Z,79.35
2019-03-05T01:37:27.004Z,78.80
2019-03-05T01:38:26.971Z,79.21
2019-03-05T01:39:26.961Z,79.00
2019-03-05T01:40:26.946Z,78.38
2019-03-05T01:41:26.937Z,78.69
2019-03-05T01:42:27.023Z,78.49
2019-03-05T01:43:26.914Z,78.49
2019-03-05T01:44:26.902Z,78.90
2019-03-05T01:45:26.894Z,78.69
2019-03-05T01:46:26.878Z,78.80
2019-03-05T01:47:26.887Z,78.28
2019-03-05T01:48:26.859Z,78.80
2019-03-05T01:49:26.847Z,78.18
2019-03-05T01:50:26.838Z,78.69
2019-03-05T01:51:26.825Z,78.59
2019-03-05T01:52:26.855Z,77.87
2019-03-05T01:53:26.802Z,78.38
2019-03-05T01:54:26.789Z,78.49
2019-03-05T01:55:26.775Z,78.38
2019-03-05T01:56:26.764Z,78.49
2019-03-05T01:57:26.756Z,78.69
2019-03-05T01:58:26.760Z,78.49
2019-03-05T01:59:26.729Z,79.21
2019-03-05T02:00:26.720Z,79.31
2019-03-05T02:01:26.707Z,78.38
2019-03-05T02:02:26.698Z,79.21
2019-03-05T02:03:26.704Z,78.38
2019-03-05T02:04:26.674Z,78.80
2019-03-05T02:05:26.661Z,79.41
2019-03-05T02:06:26.650Z,78.69
2019-03-05T02:07:26.640Z,79.52
2019-03-05T02:08:26.656Z,79.00
2019-03-05T02:09:26.617Z,78.38
2019-03-05T02:10:26.605Z,78.49
2019-03-05T02:11:26.594Z,78.49
2019-03-05T02:12:26.584Z,78.28
2019-03-05T02:13:26.595Z,78.38
2019-03-05T02:14:26.566Z,79.52
2019-03-05T02:15:26.549Z,80.07
2019-03-05T02:16:26.540Z,79.41
2019-03-05T02:17:26.526Z,79.35
2019-03-05T02:18:26.537Z,79.35
2019-03-05T02:19:26.506Z,78.73
2019-03-05T02:20:26.494Z,78.73
2019-03-05T02:21:26.484Z,78.94
2019-03-05T02:22:26.473Z,78.56
2019-03-05T02:23:26.479Z,77.63
2019-03-05T02:24:26.470Z,78.52
2019-03-05T02:25:26.442Z,78.01
2019-03-05T02:26:26.425Z,77.70
2019-03-05T02:27:26.417Z,77.32
2019-03-05T02:28:26.404Z,77.39
2019-03-05T02:29:26.416Z,77.80
2019-03-05T02:30:26.386Z,77.91
2019-03-05T02:31:26.373Z,77.70
2019-03-05T02:32:26.361Z,77.84
2019-03-05T02:33:26.348Z,77.01
2019-03-05T02:34:26.355Z,77.01
2019-03-05T02:35:26.327Z,76.70
2019-03-05T02:36:26.323Z,77.11
2019-03-05T02:37:26.335Z,77.11
2019-03-05T02:38:26.293Z,77.11
2019-03-05T02:39:26.302Z,77.22
2019-03-05T02:40:26.269Z,76.70
2019-03-05T02:41:26.258Z,76.50
2019-03-05T02:42:26.251Z,76.39
2019-03-05T02:43:26.236Z,76.18
2019-03-05T02:44:26.247Z,76.81
2019-03-05T02:45:26.220Z,77.32
2019-03-05T02:46:26.237Z,77.53
2019-03-05T02:47:26.195Z,77.11
2019-03-05T02:48:26.181Z,77.22
2019-03-05T02:49:26.212Z,77.53
2019-03-05T02:50:26.161Z,77.42
2019-03-05T02:51:26.148Z,77.11
2019-03-05T02:52:26.141Z,77.84
2019-03-05T02:53:26.124Z,77.53
2019-03-05T02:54:26.113Z,77.84
2019-03-05T02:55:26.120Z,77.94
2019-03-05T02:56:26.093Z,77.98
2019-03-05T02:57:26.078Z,77.98
2019-03-05T02:58:26.068Z,77.98
2019-03-05T02:59:26.065Z,77.77
2019-03-05T03:00:26.068Z,77.98
2019-03-05T03:01:26.036Z,78.18
2019-03-05T03:02:26.024Z,78.28
2019-03-05T03:03:26.014Z,78.49
2019-03-05T03:04:26.000Z,78.70
2019-03-05T03:05:26.009Z,78.39
2019-03-05T03:06:25.996Z,78.39
2019-03-05T03:07:25.967Z,78.80
2019-03-05T03:08:25.959Z,78.59
2019-03-05T03:09:25.948Z,78.80
2019-03-05T03:10:25.979Z,78.70
2019-03-05T03:11:25.929Z,78.80
2019-03-05T03:12:25.912Z,78.39
2019-03-05T03:13:25.901Z,79.01
2019-03-05T03:14:25.914Z,78.91
2019-03-05T03:15:25.888Z,78.70
2019-03-05T03:16:25.885Z,79.42
2019-03-05T03:17:25.857Z,79.25
2019-03-05T03:18:25.843Z,79.42
2019-03-05T03:19:25.841Z,79.77
2019-03-05T03:20:25.822Z,79.97
2019-03-05T03:21:25.859Z,79.83
2019-03-05T03:22:25.801Z,79.52
2019-03-05T03:23:25.791Z,79.52
2019-03-05T03:24:25.776Z,78.63
2019-03-05T03:25:25.770Z,79.63
2019-03-05T03:26:25.757Z,79.22
2019-03-05T03:27:25.763Z,78.91
2019-03-05T03:28:25.732Z,78.80
2019-03-05T03:29:25.722Z,79.22
2019-03-05T03:30:25.725Z,79.32
2019-03-05T03:31:25.699Z,79.22
2019-03-05T03:32:25.708Z,79.56
2019-03-05T03:33:25.680Z,79.22
2019-03-05T03:34:25.676Z,79.01
2019-03-05T03:35:25.656Z,78.91
2019-03-05T03:36:25.640Z,79.94
2019-03-05T03:37:25.675Z,79.32
2019-03-05T03:38:25.622Z,79.66
2019-03-05T03:39:25.610Z,79.11
2019-03-05T03:40:25.600Z,78.80
2019-03-05T03:41:25.586Z,79.32
2019-03-05T03:42:25.574Z,78.59
2019-03-05T03:43:25.583Z,78.74
2019-03-05T03:44:25.595Z,78.91
2019-03-05T03:45:25.542Z,79.01
2019-03-05T03:46:25.529Z,78.63
2019-03-05T03:47:25.521Z,78.91
2019-03-05T03:48:25.538Z,79.97
2019-03-05T03:49:25.541Z,79.77
2019-03-05T03:50:25.488Z,78.74
2019-03-05T03:51:25.479Z,78.22
2019-03-05T03:52:25.462Z,78.94
2019-03-05T03:53:25.470Z,79.36
2019-03-05T03:54:25.451Z,79.22
2019-03-05T03:55:25.432Z,79.36
2019-03-05T03:56:25.420Z,79.25
2019-03-05T03:57:25.405Z,79.19
2019-03-05T03:58:25.414Z,79.42
2019-03-05T03:59:25.383Z,79.56
2019-03-05T04:00:25.425Z,79.46
2019-03-05T04:01:25.362Z,79.36
2019-03-05T04:02:25.352Z,79.36
2019-03-05T04:03:25.360Z,79.77
2019-03-05T04:04:25.491Z,79.05
2019-03-05T04:05:25.320Z,79.46
2019-03-05T04:06:25.304Z,79.56
2019-03-05T04:07:25.301Z,78.63
2019-03-05T04:08:25.279Z,78.63
2019-03-05T04:09:25.289Z,79.36
2019-03-05T04:10:25.260Z,78.70
2019-03-05T04:11:25.247Z,78.74
2019-03-05T04:12:25.240Z,78.22
2019-03-05T04:13:25.223Z,78.59
2019-03-05T04:14:25.255Z,78.70
2019-03-05T04:15:25.213Z,79.01
2019-03-05T04:16:25.195Z,78.59
2019-03-05T04:17:25.180Z,78.74
2019-03-05T04:18:25.178Z,78.59
2019-03-05T04:19:25.232Z,79.42
2019-03-05T04:20:25.144Z,78.91
2019-03-05T04:21:25.136Z,79.22
2019-03-05T04:22:25.122Z,79.22
2019-03-05T04:23:25.110Z,78.49
2019-03-05T04:24:25.099Z,78.70
2019-03-05T04:25:25.110Z,78.70
2019-03-05T04:26:25.154Z,78.70
2019-03-05T04:27:25.065Z,79.42
2019-03-05T04:28:25.053Z,78.59
2019-03-05T04:29:25.044Z,78.28
2019-03-05T04:30:25.048Z,79.11
2019-03-05T04:31:25.016Z,79.77
2019-03-05T04:32:25.006Z,79.46
2019-03-05T04:33:24.998Z,79.11
2019-03-05T04:34:24.983Z,79.32
2019-03-05T04:35:24.993Z,78.74
2019-03-05T04:36:24.961Z,79.77
2019-03-05T04:37:24.952Z,79.42
2019-03-05T04:38:24.942Z,78.80
2019-03-05T04:39:24.929Z,78.39
2019-03-05T04:40:24.941Z,78.80
2019-03-05T04:41:24.907Z,78.70
2019-03-05T04:42:24.897Z,78.63
2019-03-05T04:43:24.884Z,79.32
2019-03-05T04:44:24.875Z,79.25
2019-03-05T04:45:24.862Z,79.25
2019-03-05T04:46:24.872Z,79.83
2019-03-05T04:47:24.838Z,79.01
2019-03-05T04:48:24.827Z,79.11
2019-03-05T04:49:26.614Z,79.87
2019-03-05T04:50:24.810Z,79.83
2019-03-05T04:51:24.813Z,78.53
2019-03-05T04:52:24.786Z,78.80
2019-03-05T04:53:24.772Z,78.84
2019-03-05T04:54:24.759Z,78.46
2019-03-05T04:55:24.748Z,78.74
2019-03-05T04:56:27.144Z,78.63
2019-03-05T04:57:24.729Z,79.05
2019-03-05T04:58:24.716Z,78.74
2019-03-05T04:59:24.703Z,78.53
2019-03-05T05:00:24.716Z,78.11
2019-03-05T05:01:24.706Z,78.74
2019-03-05T05:02:24.668Z,78.74
2019-03-05T05:03:24.659Z,78.94
2019-03-05T05:04:24.648Z,78.42
2019-03-05T05:05:24.639Z,78.42
2019-03-05T05:06:24.628Z,78.39
2019-03-05T05:07:24.631Z,78.63
2019-03-05T05:08:24.602Z,78.74
2019-03-05T05:09:24.592Z,78.63
2019-03-05T05:10:24.582Z,78.32
2019-03-05T05:11:24.570Z,78.63
2019-03-05T05:12:24.580Z,79.29
2019-03-05T05:13:24.547Z,78.98
2019-03-05T05:14:24.536Z,78.53
2019-03-05T05:15:24.524Z,78.46
2019-03-05T05:16:24.514Z,78.94
2019-03-05T05:17:24.522Z,79.15
2019-03-05T05:18:24.492Z,79.36
2019-03-05T05:19:24.477Z,79.66
2019-03-05T05:20:24.469Z,79.25
2019-03-05T05:21:24.456Z,79.15
2019-03-05T05:22:24.446Z,79.29
2019-03-05T05:23:24.452Z,79.15
2019-03-05T05:24:24.421Z,79.56
2019-03-05T05:25:24.410Z,79.15
2019-03-05T05:26:24.398Z,79.36
2019-03-05T05:27:24.389Z,79.36
2019-03-05T05:28:24.398Z,79.15
2019-03-05T05:29:24.363Z,79.05
2019-03-05T05:30:24.355Z,79.77
2019-03-05T05:31:24.341Z,79.56
2019-03-05T05:32:24.337Z,79.77
2019-03-05T05:33:24.341Z,79.46
2019-03-05T05:34:24.308Z,79.73
2019-03-05T05:35:24.296Z,79.25
2019-03-05T05:36:24.287Z,79.01
2019-03-05T05:37:24.280Z,79.56
2019-03-05T05:38:24.267Z,79.36
2019-03-05T05:39:24.270Z,79.66
2019-03-05T05:40:24.240Z,79.22
2019-03-05T05:41:24.228Z,79.15
2019-03-05T05:42:24.218Z,79.42
2019-03-05T05:43:24.207Z,79.63
2019-03-05T05:44:24.214Z,79.32
2019-03-05T05:45:24.186Z,80.97
2019-03-05T05:46:24.171Z,80.11
2019-03-05T05:47:24.160Z,78.45
2019-03-05T05:48:24.159Z,78.66
2019-03-05T05:49:24.160Z,78.91
2019-03-05T05:50:24.126Z,78.80
2019-03-05T05:51:24.117Z,79.32
2019-03-05T05:52:24.106Z,79.52
2019-03-05T05:53:24.093Z,79.63
2019-03-05T05:54:24.082Z,79.73
2019-03-05T05:55:24.089Z,79.83
2019-03-05T05:56:24.061Z,79.73
2019-03-05T05:57:24.049Z,79.42
2019-03-05T05:58:24.108Z,79.42
2019-03-05T05:59:24.026Z,78.49
2019-03-05T06:00:24.035Z,79.63
2019-03-05T06:01:24.006Z,79.22
2019-03-05T06:02:23.998Z,79.42
2019-03-05T06:03:23.982Z,79.22
2019-03-05T06:04:23.975Z,79.63
2019-03-05T06:05:23.985Z,78.70
2019-03-05T06:06:23.949Z,79.90
2019-03-05T06:07:23.941Z,78.87
2019-03-05T06:08:23.925Z,78.35
2019-03-05T06:09:23.913Z,77.94
2019-03-05T06:10:23.903Z,78.05
2019-03-05T06:11:23.913Z,78.14
2019-03-05T06:12:23.884Z,78.05
2019-03-05T06:13:23.870Z,78.05
2019-03-05T06:14:23.858Z,78.56
2019-03-05T06:15:23.848Z,78.14
2019-03-05T06:16:23.854Z,77.98
2019-03-05T06:17:23.827Z,78.39
2019-03-05T06:18:23.815Z,78.56
2019-03-05T06:19:23.804Z,78.56
2019-03-05T06:20:23.794Z,78.45
2019-03-05T06:21:23.798Z,78.45
2019-03-05T06:22:23.773Z,78.56
2019-03-05T06:23:23.761Z,78.25
2019-03-05T06:24:23.748Z,78.25
2019-03-05T06:25:23.737Z,78.56
2019-03-05T06:26:23.745Z,78.05
2019-03-05T06:27:23.712Z,77.28
2019-03-05T06:28:23.701Z,76.87
2019-03-05T06:29:23.689Z,77.08
2019-03-05T06:30:23.678Z,77.42
2019-03-05T06:31:23.684Z,77.42
2019-03-05T06:32:23.657Z,77.73
2019-03-05T06:33:23.643Z,77.53
2019-03-05T06:34:23.637Z,78.25
2019-03-05T06:35:23.623Z,78.25
2019-03-05T06:36:23.628Z,78.25
2019-03-05T06:37:23.601Z,77.94
2019-03-05T06:38:23.601Z,78.05
2019-03-05T06:39:23.575Z,77.84
2019-03-05T06:40:23.568Z,77.84
2019-03-05T06:41:23.571Z,77.77
2019-03-05T06:42:23.544Z,78.35
2019-03-05T06:43:23.531Z,78.35
2019-03-05T06:44:23.522Z,78.70
2019-03-05T06:45:23.512Z,78.39
2019-03-05T06:46:23.517Z,78.28
2019-03-05T06:47:23.485Z,78.59
2019-03-05T06:48:23.475Z,78.91
2019-03-05T06:49:23.464Z,79.11
2019-03-05T06:50:23.456Z,79.63
2019-03-05T06:51:23.460Z,79.11
2019-03-05T06:52:23.431Z,79.42
2019-03-05T06:53:23.420Z,79.63
2019-03-05T06:54:23.408Z,79.73
2019-03-05T06:55:23.396Z,80.87
2019-03-05T06:56:23.405Z,79.83
2019-03-05T06:57:23.375Z,79.56
2019-03-05T06:58:23.363Z,80.29
2019-03-05T06:59:23.351Z,80.70
2019-03-05T07:00:23.346Z,81.28
2019-03-05T07:01:23.349Z,81.63
2019-03-05T07:02:23.317Z,81.21
2019-03-05T07:03:23.307Z,81.63
2019-03-05T07:04:23.297Z,82.35
2019-03-05T07:05:23.287Z,82.76
2019-03-05T07:06:23.293Z,82.80
2019-03-05T07:07:23.265Z,82.97
2019-03-05T07:08:23.251Z,82.70
2019-03-05T07:09:23.242Z,83.18
2019-03-05T07:10:23.229Z,83.53
2019-03-05T07:11:23.241Z,83.80
2019-03-05T07:12:23.210Z,83.70
2019-03-05T07:13:23.194Z,84.15
2019-03-05T07:14:23.182Z,83.01
2019-03-05T07:15:23.174Z,83.90
2019-03-05T07:16:23.162Z,84.45
2019-03-05T07:17:23.167Z,84.36
2019-03-05T07:18:23.716Z,83.63
2019-03-05T07:19:23.132Z,84.45
2019-03-05T07:20:23.117Z,83.42
2019-03-05T07:21:23.106Z,83.11
2019-03-05T07:22:23.118Z,84.36
2019-03-05T07:23:23.144Z,84.56
2019-03-05T07:24:23.072Z,83.80
2019-03-05T07:25:23.062Z,85.21
2019-03-05T07:26:23.050Z,82.00
2019-03-05T07:27:23.038Z,81.90
2019-03-05T07:28:23.047Z,81.73
2019-03-05T07:29:23.018Z,82.62
2019-03-05T07:30:23.010Z,82.45
2019-03-05T07:31:22.995Z,82.87
2019-03-05T07:32:22.985Z,82.35
2019-03-05T07:33:22.989Z,82.56
2019-03-05T07:34:22.962Z,82.42
2019-03-05T07:35:22.948Z,82.97
2019-03-05T07:36:22.940Z,82.76
2019-03-05T07:37:22.928Z,83.07
2019-03-05T07:38:22.934Z,82.73
2019-03-05T07:39:22.905Z,83.45
2019-03-05T07:40:22.896Z,83.49
2019-03-05T07:41:22.888Z,84.11
2019-03-05T07:42:22.873Z,83.39
2019-03-05T07:43:22.880Z,83.63
2019-03-05T07:44:22.850Z,83.49
2019-03-05T07:45:22.840Z,83.70
2019-03-05T07:46:22.825Z,84.45
2019-03-05T07:47:22.813Z,84.36
2019-03-05T07:48:22.825Z,84.87
2019-03-05T07:49:22.794Z,84.97
2019-03-05T07:50:22.783Z,85.08
2019-03-05T07:51:22.773Z,85.42
2019-03-05T07:52:22.767Z,86.05
2019-03-05T07:53:22.767Z,85.94
2019-03-05T07:54:22.737Z,86.05
2019-03-05T07:55:22.726Z,86.40
2019-03-05T07:56:22.714Z,87.18
2019-03-05T07:57:22.703Z,87.33
2019-03-05T07:58:22.710Z,88.16
2019-03-05T07:59:22.680Z,88.16
2019-03-05T08:00:22.672Z,88.67
2019-03-05T08:01:22.792Z,88.88
2019-03-05T08:02:22.654Z,88.36
2019-03-05T08:03:22.658Z,88.74
2019-03-05T08:04:22.625Z,89.81
2019-03-05T08:05:22.612Z,89.71
2019-03-05T08:06:22.601Z,90.33
2019-03-05T08:07:22.588Z,90.12
2019-03-05T08:08:26.572Z,90.19
2019-03-05T08:09:22.586Z,89.09
2019-03-05T08:10:22.554Z,90.29
2019-03-05T08:11:22.544Z,90.44
2019-03-05T08:12:22.533Z,89.61
2019-03-05T08:13:22.522Z,90.29
2019-03-05T08:14:22.529Z,89.77
2019-03-05T08:15:22.497Z,89.46
2019-03-05T08:16:22.487Z,89.61
2019-03-05T08:17:22.475Z,89.46
2019-03-05T08:18:22.464Z,88.84
2019-03-05T08:19:22.470Z,88.84
2019-03-05T08:20:22.447Z,89.36
2019-03-05T08:21:22.429Z,89.36
2019-03-05T08:22:22.417Z,89.36
2019-03-05T08:23:22.409Z,89.04
2019-03-05T08:24:22.419Z,89.36
2019-03-05T08:25:22.384Z,89.46
2019-03-05T08:26:22.375Z,89.25
2019-03-05T08:27:22.362Z,89.15
2019-03-05T08:28:22.348Z,89.36
2019-03-05T08:29:22.339Z,89.42
2019-03-05T08:30:22.346Z,89.36
2019-03-05T08:31:22.316Z,90.39
2019-03-05T08:32:22.314Z,90.50
2019-03-05T08:33:22.291Z,90.19
2019-03-05T08:34:22.279Z,91.84
2019-03-05T08:35:22.286Z,92.61
2019-03-05T08:36:22.260Z,92.71
2019-03-05T08:37:22.249Z,92.30
2019-03-05T08:38:22.235Z,92.61
2019-03-05T08:39:22.225Z,93.43
2019-03-05T08:40:22.236Z,92.40
2019-03-05T08:41:22.203Z,92.61
2019-03-05T08:42:22.258Z,93.64
2019-03-05T08:43:22.178Z,93.89
2019-03-05T08:44:22.188Z,94.47
2019-03-05T08:45:29.454Z,94.26
2019-03-05T08:46:23.145Z,94.41
2019-03-05T08:47:22.132Z,94.89
2019-03-05T08:48:22.123Z,94.37
2019-03-05T08:49:22.158Z,93.74
2019-03-05T08:50:22.124Z,93.99
2019-03-05T08:51:22.153Z,93.48
2019-03-05T08:52:22.077Z,94.45
2019-03-05T08:53:22.065Z,94.10
2019-03-05T08:54:22.052Z,93.68
2019-03-05T08:55:22.061Z,94.72
2019-03-05T08:56:22.030Z,93.73
2019-03-05T08:57:22.015Z,94.24
2019-03-05T08:58:22.006Z,94.76
2019-03-05T08:59:21.992Z,94.20
2019-03-05T09:00:21.999Z,94.35
2019-03-05T09:01:21.972Z,94.35
2019-03-05T09:02:21.959Z,94.45
2019-03-05T09:03:21.947Z,94.82
2019-03-05T09:04:21.937Z,94.10
2019-03-05T09:05:21.963Z,94.31
2019-03-05T09:06:21.915Z,93.95
2019-03-05T09:07:21.902Z,94.37
2019-03-05T09:08:21.889Z,93.74
2019-03-05T09:09:21.881Z,93.02
2019-03-05T09:10:21.866Z,93.23
2019-03-05T09:11:21.877Z,92.81
2019-03-05T09:12:21.842Z,93.85
2019-03-05T09:13:32.421Z,92.46
2019-03-05T09:14:22.820Z,91.99
2019-03-05T09:15:21.813Z,92.36
2019-03-05T09:16:21.817Z,92.11
2019-03-05T09:17:21.787Z,91.84
2019-03-05T09:18:21.778Z,91.01
2019-03-05T09:19:21.766Z,91.74
2019-03-05T09:20:21.755Z,91.53
2019-03-05T09:21:21.762Z,91.17
2019-03-05T09:22:21.733Z,90.56
2019-03-05T09:23:21.723Z,90.35
2019-03-05T09:24:21.710Z,89.59
2019-03-05T09:25:21.698Z,89.79
2019-03-05T09:26:21.709Z,88.76
2019-03-05T09:27:21.679Z,88.20
2019-03-05T09:28:21.665Z,88.82
2019-03-05T09:29:21.651Z,87.65
2019-03-05T09:30:21.644Z,87.48
2019-03-05T09:31:21.631Z,87.07
2019-03-05T09:32:21.638Z,88.06
2019-03-05T09:33:21.607Z,88.68
2019-03-05T09:34:21.597Z,87.60
2019-03-05T09:35:21.583Z,87.60
2019-03-05T09:36:21.571Z,85.44
2019-03-05T09:37:21.580Z,84.78
2019-03-05T09:38:21.549Z,84.12
2019-03-05T09:39:21.539Z,83.98
2019-03-05T09:40:21.526Z,81.77
2019-03-05T09:41:21.518Z,81.12
2019-03-05T09:42:21.523Z,82.67
2019-03-05T09:43:21.493Z,81.12
2019-03-05T09:44:21.479Z,80.94
2019-03-05T09:45:21.472Z,78.89
2019-03-05T09:46:21.454Z,79.05
2019-03-05T09:47:21.468Z,79.74
2019-03-05T09:48:21.432Z,77.58
2019-03-05T09:49:21.419Z,76.79
2019-03-05T09:50:21.406Z,76.93
2019-03-05T09:51:21.397Z,77.27
2019-03-05T09:52:21.385Z,78.30
2019-03-05T09:53:21.390Z,78.20
2019-03-05T09:54:21.361Z,77.10
2019-03-05T09:55:21.349Z,77.10
2019-03-05T09:56:21.341Z,77.75
2019-03-05T09:57:21.330Z,78.03
2019-03-05T09:58:21.336Z,78.17
2019-03-05T09:59:21.306Z,78.10
2019-03-05T10:00:21.293Z,78.00
2019-03-05T10:01:21.282Z,77.58
2019-03-05T10:02:21.271Z,77.72
2019-03-05T10:03:21.282Z,78.41
2019-03-05T10:04:21.245Z,78.20
2019-03-05T10:05:21.241Z,78.34
2019-03-05T10:06:21.224Z,79.03
2019-03-05T10:07:21.217Z,79.54
2019-03-05T10:08:31.638Z,77.96
2019-03-05T10:09:22.204Z,78.47
2019-03-05T10:10:21.177Z,77.89
2019-03-05T10:11:21.167Z,78.30
2019-03-05T10:12:21.159Z,78.30
2019-03-05T10:13:21.143Z,78.20
2019-03-05T10:14:21.151Z,78.30
2019-03-05T10:15:21.122Z,77.55
2019-03-05T10:16:21.108Z,76.52
2019-03-05T10:17:21.152Z,76.93
2019-03-05T10:18:21.085Z,76.21
2019-03-05T10:19:21.090Z,75.56
2019-03-05T10:20:21.062Z,74.67
2019-03-05T10:21:21.052Z,74.22
2019-03-05T10:22:21.043Z,72.34
2019-03-05T10:23:21.031Z,72.75
2019-03-05T10:24:21.039Z,73.98
2019-03-05T10:25:21.007Z,73.98
2019-03-05T10:26:20.993Z,74.80
2019-03-05T10:27:20.984Z,74.12
2019-03-05T10:28:20.970Z,74.95
2019-03-05T10:29:20.976Z,74.74
2019-03-05T10:30:24.806Z,74.91
2019-03-05T10:31:20.941Z,75.04
2019-03-05T10:32:20.924Z,72.27
2019-03-05T10:33:20.919Z,72.48
2019-03-05T10:34:20.926Z,71.15
2019-03-05T10:35:20.891Z,70.22
2019-03-05T10:36:20.880Z,70.32
2019-03-05T10:37:20.868Z,70.97
2019-03-05T10:38:20.857Z,71.80
2019-03-05T10:39:29.904Z,71.18
2019-03-05T10:40:21.850Z,72.00
2019-03-05T10:41:20.822Z,73.02
2019-03-05T10:42:20.813Z,72.58
2019-03-05T10:43:20.799Z,71.04
2019-03-05T10:44:20.785Z,70.53
2019-03-05T10:45:20.792Z,71.48
2019-03-05T10:46:20.767Z,70.46
2019-03-05T10:47:20.751Z,70.80
2019-03-05T10:48:20.742Z,71.72
2019-03-05T10:49:20.729Z,71.55
2019-03-05T10:50:20.734Z,71.97
2019-03-05T10:51:20.705Z,70.29
2019-03-05T10:52:20.695Z,67.37
2019-03-05T10:53:20.684Z,65.33
2019-03-05T10:54:20.675Z,65.47
2019-03-05T10:55:26.255Z,62.33
2019-03-05T10:56:21.654Z,62.18
2019-03-05T10:57:20.638Z,61.21
2019-03-05T10:58:20.628Z,58.63
2019-03-05T10:59:20.615Z,57.95
2019-03-05T11:00:20.602Z,59.00
2019-03-05T11:01:20.608Z,62.78
2019-03-05T11:02:20.579Z,64.55
2019-03-05T11:03:20.567Z,64.49
2019-03-05T11:04:20.558Z,62.87
2019-03-05T11:05:20.545Z,60.88
2019-03-05T11:06:20.553Z,62.16
2019-03-05T11:07:20.522Z,61.80
2019-03-05T11:08:20.511Z,62.58
2019-03-05T11:09:20.498Z,64.96
2019-03-05T11:10:20.486Z,63.71
2019-03-05T11:11:20.495Z,62.33
2019-03-05T11:12:20.468Z,61.16
2019-03-05T11:13:20.454Z,60.82
2019-03-05T11:14:20.443Z,62.27
2019-03-05T11:15:20.430Z,64.34
2019-03-05T11:16:30.474Z,61.57
2019-03-05T11:17:21.407Z,61.83
2019-03-05T11:18:29.000Z,61.76
2019-03-05T11:19:21.382Z,62.84
2019-03-05T11:20:20.371Z,64.30
2019-03-05T11:21:20.389Z,65.56
2019-03-05T11:22:20.368Z,66.48
2019-03-05T11:23:20.365Z,66.42
2019-03-05T11:24:20.327Z,61.79
2019-03-05T11:25:20.315Z,62.95
2019-03-05T11:26:20.303Z,64.75
2019-03-05T11:27:20.312Z,64.59
2019-03-05T11:28:20.280Z,57.84
2019-03-05T11:29:20.268Z,56.18
2019-03-05T11:30:20.259Z,54.46
2019-03-05T11:31:20.247Z,52.48
2019-03-05T11:32:20.259Z,49.76
2019-03-05T11:33:20.236Z,51.60
2019-03-05T11:34:20.209Z,51.73
2019-03-05T11:35:20.200Z,53.65
2019-03-05T11:36:20.186Z,52.92
2019-03-05T11:37:20.175Z,51.88
2019-03-05T11:38:20.188Z,49.51
2019-03-05T11:39:20.154Z,48.99
2019-03-05T11:40:21.291Z,52.84
2019-03-05T11:41:20.132Z,54.54
2019-03-05T11:42:20.119Z,55.10
2019-03-05T11:43:20.126Z,55.94
2019-03-05T11:44:20.095Z,58.30
2019-03-05T11:45:20.083Z,57.82
2019-03-05T11:46:20.074Z,58.59
2019-03-05T11:47:20.062Z,58.72
2019-03-05T11:48:20.067Z,59.84
2019-03-05T11:49:20.038Z,60.00
2019-03-05T11:50:20.027Z,60.71
2019-03-05T11:51:20.018Z,61.66
2019-03-05T11:52:20.002Z,60.17
2019-03-05T11:53:20.013Z,57.54
2019-03-05T11:54:19.980Z,56.57
2019-03-05T11:55:19.966Z,56.24
2019-03-05T11:56:19.960Z,52.11
2019-03-05T11:57:19.948Z,51.42
2019-03-05T11:58:19.949Z,51.73
2019-03-05T11:59:19.921Z,48.60
2019-03-05T12:00:19.908Z,46.33
2019-03-05T12:01:19.897Z,45.50
2019-03-05T12:02:21.980Z,47.89
2019-03-05T12:03:19.897Z,46.72
2019-03-05T12:04:19.864Z,49.85
2019-03-05T12:05:19.853Z,49.90
2019-03-05T12:06:19.842Z,50.56
2019-03-05T12:07:19.830Z,51.95
2019-03-05T12:08:19.819Z,52.61
2019-03-05T12:09:19.823Z,54.11
2019-03-05T12:10:19.797Z,55.89
2019-03-05T12:11:19.783Z,57.18
2019-03-05T12:12:19.773Z,52.46
2019-03-05T12:13:19.764Z,50.91
2019-03-05T12:14:19.768Z,52.08
2019-03-05T12:15:19.736Z,51.45
2019-03-05T12:16:19.727Z,50.34
2019-03-05T12:17:19.713Z,51.34
2019-03-05T12:18:19.707Z,52.81
2019-03-05T12:19:19.709Z,53.60
2019-03-05T12:20:19.681Z,52.00
2019-03-05T12:21:19.669Z,51.16
2019-03-05T12:22:19.656Z,51.42
2019-03-05T12:23:19.647Z,52.33
2019-03-05T12:24:19.959Z,52.12
2019-03-05T12:25:19.628Z,54.11
2019-03-05T12:26:19.615Z,52.28
2019-03-05T12:27:19.600Z,50.18
2019-03-05T12:28:19.591Z,48.57
2019-03-05T12:29:19.595Z,48.28
2019-03-05T12:30:19.565Z,49.40
2019-03-05T12:31:19.558Z,47.07
2019-03-05T12:32:19.543Z,48.48
2019-03-05T12:33:19.554Z,50.90
2019-03-05T12:34:19.521Z,52.40
2019-03-05T12:35:19.508Z,55.02
2019-03-05T12:36:19.497Z,55.99
2019-03-05T12:37:19.485Z,56.94
2019-03-05T12:38:19.474Z,58.39
2019-03-05T12:39:19.480Z,58.62
2019-03-05T12:40:19.450Z,59.34
2019-03-05T12:41:19.435Z,59.98
2019-03-05T12:42:19.433Z,61.13
2019-03-05T12:43:19.413Z,61.67
2019-03-05T12:44:19.423Z,62.26
2019-03-05T12:45:19.393Z,59.16
2019-03-05T12:46:19.380Z,56.55
2019-03-05T12:47:19.377Z,57.29
2019-03-05T12:48:19.358Z,58.03
2019-03-05T12:49:19.369Z,58.39
2019-03-05T12:50:19.336Z,59.55
2019-03-05T12:51:19.324Z,58.21
2019-03-05T12:52:19.311Z,54.57